sensor_id;sensor_type;location;lat;lon;timestamp;P1;durP1;ratioP1;P2;durP2;ratioP2
14088;SDS011;7120;52.890;6.040;2022-12-29T00:02:16;24.03;;;18.73;;
14088;SDS011;7120;52.890;6.040;2022-12-29T00:04:42;23.40;;;20.83;;
14088;SDS011;7120;52.890;6.040;2022-12-29T00:07:08;8.87;;;8.17;;
14088;SDS011;7120;52.890;6.040;2022-12-29T00:09:34;9.63;;;8.83;;
14088;SDS011;7120;52.890;6.040;2022-12-29T00:12:00;9.47;;;8.67;;
14088;SDS011;7120;52.890;6.040;2022-12-29T00:14:28;8.60;;;7.90;;
14088;SDS011;7120;52.890;6.040;2022-12-29T00:17:12;8.63;;;7.93;;
14088;SDS011;7120;52.890;6.040;2022-12-29T00:19:37;10.47;;;9.47;;
14088;SDS011;7120;52.890;6.040;2022-12-29T00:22:23;8.53;;;7.83;;
14088;SDS011;7120;52.890;6.040;2022-12-29T00:25:08;8.83;;;8.00;;
14088;SDS011;7120;52.890;6.040;2022-12-29T00:27:53;7.97;;;7.17;;
14088;SDS011;7120;52.890;6.040;2022-12-29T00:30:37;7.23;;;6.60;;
14088;SDS011;7120;52.890;6.040;2022-12-29T00:33:28;6.60;;;6.00;;
14088;SDS011;7120;52.890;6.040;2022-12-29T00:39:05;7.10;;;6.47;;
14088;SDS011;7120;52.890;6.040;2022-12-29T00:42:13;5.90;;;5.40;;
14088;SDS011;7120;52.890;6.040;2022-12-29T00:45:07;5.77;;;5.27;;
14088;SDS011;7120;52.890;6.040;2022-12-29T00:47:34;5.33;;;4.93;;
14088;SDS011;7120;52.890;6.040;2022-12-29T00:50:00;5.77;;;5.23;;
14088;SDS011;7120;52.890;6.040;2022-12-29T00:52:25;6.00;;;5.40;;
14088;SDS011;7120;52.890;6.040;2022-12-29T00:54:50;5.30;;;4.80;;
14088;SDS011;7120;52.890;6.040;2022-12-29T00:57:16;5.07;;;4.60;;
14088;SDS011;7120;52.890;6.040;2022-12-29T00:59:41;5.23;;;4.83;;
14088;SDS011;7120;52.890;6.040;2022-12-29T01:02:07;4.80;;;4.40;;
14088;SDS011;7120;52.890;6.040;2022-12-29T01:04:34;4.50;;;4.17;;
14088;SDS011;7120;52.890;6.040;2022-12-29T01:06:59;4.90;;;4.40;;
14088;SDS011;7120;52.890;6.040;2022-12-29T01:09:25;4.97;;;4.57;;
14088;SDS011;7120;52.890;6.040;2022-12-29T01:12:09;4.97;;;4.57;;
14088;SDS011;7120;52.890;6.040;2022-12-29T01:14:36;5.57;;;4.33;;
14088;SDS011;7120;52.890;6.040;2022-12-29T01:17:02;4.90;;;4.40;;
14088;SDS011;7120;52.890;6.040;2022-12-29T01:19:28;4.30;;;3.90;;
14088;SDS011;7120;52.890;6.040;2022-12-29T01:21:54;4.40;;;4.00;;
14088;SDS011;7120;52.890;6.040;2022-12-29T01:24:21;3.80;;;3.50;;
14088;SDS011;7120;52.890;6.040;2022-12-29T01:26:47;4.00;;;3.70;;
14088;SDS011;7120;52.890;6.040;2022-12-29T01:29:13;4.60;;;3.80;;
14088;SDS011;7120;52.890;6.040;2022-12-29T01:31:39;6.30;;;5.30;;
14088;SDS011;7120;52.890;6.040;2022-12-29T01:34:05;10.37;;;7.83;;
14088;SDS011;7120;52.890;6.040;2022-12-29T01:36:30;3.57;;;3.27;;
14088;SDS011;7120;52.890;6.040;2022-12-29T01:38:56;8.40;;;6.10;;
14088;SDS011;7120;52.890;6.040;2022-12-29T01:41:22;4.67;;;3.77;;
14088;SDS011;7120;52.890;6.040;2022-12-29T01:46:31;4.13;;;3.70;;
14088;SDS011;7120;52.890;6.040;2022-12-29T01:51:27;4.30;;;3.90;;
14088;SDS011;7120;52.890;6.040;2022-12-29T01:53:55;6.40;;;5.80;;
14088;SDS011;7120;52.890;6.040;2022-12-29T01:56:25;10.00;;;9.00;;
14088;SDS011;7120;52.890;6.040;2022-12-29T01:58:57;7.37;;;6.57;;
14088;SDS011;7120;52.890;6.040;2022-12-29T02:01:28;9.00;;;8.17;;
14088;SDS011;7120;52.890;6.040;2022-12-29T02:03:53;3.20;;;3.00;;
14088;SDS011;7120;52.890;6.040;2022-12-29T02:06:25;4.03;;;3.10;;
14088;SDS011;7120;52.890;6.040;2022-12-29T02:08:56;7.30;;;6.50;;
14088;SDS011;7120;52.890;6.040;2022-12-29T02:11:23;4.93;;;3.90;;
14088;SDS011;7120;52.890;6.040;2022-12-29T02:13:50;2.43;;;2.23;;
14088;SDS011;7120;52.890;6.040;2022-12-29T02:27:23;2.20;;;2.00;;
14088;SDS011;7120;52.890;6.040;2022-12-29T02:30:08;2.30;;;2.10;;
14088;SDS011;7120;52.890;6.040;2022-12-29T02:32:50;2.90;;;2.10;;
14088;SDS011;7120;52.890;6.040;2022-12-29T02:38:10;3.07;;;2.20;;
14088;SDS011;7120;52.890;6.040;2022-12-29T02:46:17;2.97;;;2.20;;
14088;SDS011;7120;52.890;6.040;2022-12-29T02:51:48;3.27;;;2.50;;
14088;SDS011;7120;52.890;6.040;2022-12-29T02:54:29;3.03;;;2.67;;
14088;SDS011;7120;52.890;6.040;2022-12-29T02:59:48;2.57;;;2.00;;
14088;SDS011;7120;52.890;6.040;2022-12-29T03:08:11;3.13;;;1.67;;
14088;SDS011;7120;52.890;6.040;2022-12-29T03:13:42;3.83;;;1.90;;
14088;SDS011;7120;52.890;6.040;2022-12-29T03:16:47;5.17;;;1.77;;
14088;SDS011;7120;52.890;6.040;2022-12-29T03:24:46;2.90;;;2.13;;
14088;SDS011;7120;52.890;6.040;2022-12-29T03:27:17;2.43;;;1.70;;
14088;SDS011;7120;52.890;6.040;2022-12-29T03:29:50;5.73;;;2.43;;
14088;SDS011;7120;52.890;6.040;2022-12-29T03:32:24;1.97;;;1.80;;
14088;SDS011;7120;52.890;6.040;2022-12-29T03:35:07;3.10;;;2.00;;
14088;SDS011;7120;52.890;6.040;2022-12-29T03:37:38;2.50;;;1.60;;
14088;SDS011;7120;52.890;6.040;2022-12-29T03:40:06;2.20;;;1.50;;
14088;SDS011;7120;52.890;6.040;2022-12-29T03:42:34;3.20;;;1.77;;
14088;SDS011;7120;52.890;6.040;2022-12-29T03:45:01;1.97;;;1.30;;
14088;SDS011;7120;52.890;6.040;2022-12-29T03:47:30;3.93;;;1.70;;
14088;SDS011;7120;52.890;6.040;2022-12-29T03:49:56;3.77;;;1.63;;
14088;SDS011;7120;52.890;6.040;2022-12-29T03:52:23;3.43;;;1.50;;
14088;SDS011;7120;52.890;6.040;2022-12-29T03:54:48;3.97;;;1.50;;
14088;SDS011;7120;52.890;6.040;2022-12-29T03:57:15;4.77;;;1.57;;
14088;SDS011;7120;52.890;6.040;2022-12-29T03:59:41;2.17;;;1.70;;
14088;SDS011;7120;52.890;6.040;2022-12-29T04:02:06;4.37;;;1.50;;
14088;SDS011;7120;52.890;6.040;2022-12-29T04:04:32;4.63;;;1.67;;
14088;SDS011;7120;52.890;6.040;2022-12-29T04:06:57;4.47;;;1.47;;
14088;SDS011;7120;52.890;6.040;2022-12-29T04:09:22;2.93;;;1.20;;
14088;SDS011;7120;52.890;6.040;2022-12-29T04:11:48;4.63;;;1.30;;
14088;SDS011;7120;52.890;6.040;2022-12-29T04:14:13;3.77;;;1.27;;
14088;SDS011;7120;52.890;6.040;2022-12-29T04:16:38;2.70;;;1.20;;
14088;SDS011;7120;52.890;6.040;2022-12-29T04:19:04;3.40;;;1.40;;
14088;SDS011;7120;52.890;6.040;2022-12-29T04:21:31;5.30;;;1.47;;
14088;SDS011;7120;52.890;6.040;2022-12-29T04:23:56;3.23;;;1.37;;
14088;SDS011;7120;52.890;6.040;2022-12-29T04:26:22;4.57;;;1.30;;
14088;SDS011;7120;52.890;6.040;2022-12-29T04:28:47;5.20;;;1.13;;
14088;SDS011;7120;52.890;6.040;2022-12-29T04:31:13;3.47;;;1.67;;
14088;SDS011;7120;52.890;6.040;2022-12-29T04:33:39;6.23;;;1.50;;
14088;SDS011;7120;52.890;6.040;2022-12-29T04:36:05;4.83;;;1.43;;
14088;SDS011;7120;52.890;6.040;2022-12-29T04:38:30;7.70;;;1.67;;
14088;SDS011;7120;52.890;6.040;2022-12-29T04:41:00;3.93;;;1.57;;
14088;SDS011;7120;52.890;6.040;2022-12-29T04:43:27;2.67;;;1.47;;
14088;SDS011;7120;52.890;6.040;2022-12-29T04:45:53;8.77;;;2.07;;
14088;SDS011;7120;52.890;6.040;2022-12-29T04:48:18;6.40;;;1.90;;
14088;SDS011;7120;52.890;6.040;2022-12-29T04:50:44;6.33;;;1.80;;
14088;SDS011;7120;52.890;6.040;2022-12-29T04:53:15;5.03;;;2.13;;
14088;SDS011;7120;52.890;6.040;2022-12-29T04:55:41;7.33;;;2.03;;
14088;SDS011;7120;52.890;6.040;2022-12-29T04:58:07;5.93;;;2.13;;
14088;SDS011;7120;52.890;6.040;2022-12-29T05:00:36;9.43;;;2.60;;
14088;SDS011;7120;52.890;6.040;2022-12-29T05:03:03;5.97;;;2.07;;
14088;SDS011;7120;52.890;6.040;2022-12-29T05:05:28;5.40;;;2.23;;
14088;SDS011;7120;52.890;6.040;2022-12-29T05:07:54;8.80;;;2.53;;
14088;SDS011;7120;52.890;6.040;2022-12-29T05:10:19;10.53;;;2.37;;
14088;SDS011;7120;52.890;6.040;2022-12-29T05:12:44;8.20;;;2.10;;
14088;SDS011;7120;52.890;6.040;2022-12-29T05:15:13;6.70;;;2.03;;
14088;SDS011;7120;52.890;6.040;2022-12-29T05:17:42;8.47;;;2.40;;
14088;SDS011;7120;52.890;6.040;2022-12-29T05:20:10;7.53;;;1.87;;
14088;SDS011;7120;52.890;6.040;2022-12-29T05:22:36;8.90;;;2.50;;
14088;SDS011;7120;52.890;6.040;2022-12-29T05:25:02;11.10;;;2.87;;
14088;SDS011;7120;52.890;6.040;2022-12-29T05:27:28;9.03;;;2.37;;
14088;SDS011;7120;52.890;6.040;2022-12-29T05:29:53;7.87;;;1.93;;
14088;SDS011;7120;52.890;6.040;2022-12-29T05:32:19;12.27;;;2.33;;
14088;SDS011;7120;52.890;6.040;2022-12-29T05:34:45;12.57;;;2.30;;
14088;SDS011;7120;52.890;6.040;2022-12-29T05:37:10;8.43;;;2.30;;
14088;SDS011;7120;52.890;6.040;2022-12-29T05:39:37;9.13;;;2.07;;
14088;SDS011;7120;52.890;6.040;2022-12-29T05:42:03;5.90;;;1.93;;
14088;SDS011;7120;52.890;6.040;2022-12-29T05:44:30;7.57;;;2.10;;
14088;SDS011;7120;52.890;6.040;2022-12-29T05:46:56;9.97;;;2.60;;
14088;SDS011;7120;52.890;6.040;2022-12-29T05:49:24;5.97;;;2.13;;
14088;SDS011;7120;52.890;6.040;2022-12-29T05:51:49;7.97;;;1.87;;
14088;SDS011;7120;52.890;6.040;2022-12-29T05:54:15;6.87;;;2.00;;
14088;SDS011;7120;52.890;6.040;2022-12-29T05:56:40;8.27;;;1.97;;
14088;SDS011;7120;52.890;6.040;2022-12-29T05:59:05;4.93;;;1.73;;
14088;SDS011;7120;52.890;6.040;2022-12-29T06:01:31;10.47;;;2.20;;
14088;SDS011;7120;52.890;6.040;2022-12-29T06:03:56;6.97;;;2.00;;
14088;SDS011;7120;52.890;6.040;2022-12-29T06:06:21;11.07;;;2.63;;
14088;SDS011;7120;52.890;6.040;2022-12-29T06:08:47;7.83;;;2.37;;
14088;SDS011;7120;52.890;6.040;2022-12-29T06:11:12;16.67;;;2.90;;
14088;SDS011;7120;52.890;6.040;2022-12-29T06:13:38;10.83;;;2.67;;
14088;SDS011;7120;52.890;6.040;2022-12-29T06:16:03;13.30;;;3.40;;
14088;SDS011;7120;52.890;6.040;2022-12-29T06:18:29;10.77;;;3.00;;
14088;SDS011;7120;52.890;6.040;2022-12-29T06:20:59;13.50;;;2.77;;
14088;SDS011;7120;52.890;6.040;2022-12-29T06:23:25;10.93;;;2.93;;
14088;SDS011;7120;52.890;6.040;2022-12-29T06:25:50;12.53;;;2.80;;
14088;SDS011;7120;52.890;6.040;2022-12-29T06:28:16;9.07;;;2.63;;
14088;SDS011;7120;52.890;6.040;2022-12-29T06:30:46;10.17;;;2.67;;
14088;SDS011;7120;52.890;6.040;2022-12-29T06:33:13;10.57;;;2.47;;
14088;SDS011;7120;52.890;6.040;2022-12-29T06:35:39;13.73;;;3.03;;
14088;SDS011;7120;52.890;6.040;2022-12-29T06:38:04;8.43;;;2.30;;
14088;SDS011;7120;52.890;6.040;2022-12-29T06:40:30;9.00;;;2.90;;
14088;SDS011;7120;52.890;6.040;2022-12-29T06:42:56;11.93;;;2.43;;
14088;SDS011;7120;52.890;6.040;2022-12-29T06:45:21;10.03;;;2.33;;
14088;SDS011;7120;52.890;6.040;2022-12-29T06:47:48;9.77;;;2.30;;
14088;SDS011;7120;52.890;6.040;2022-12-29T06:50:13;10.47;;;2.87;;
14088;SDS011;7120;52.890;6.040;2022-12-29T06:52:39;8.03;;;2.63;;
14088;SDS011;7120;52.890;6.040;2022-12-29T06:55:04;11.53;;;2.60;;
14088;SDS011;7120;52.890;6.040;2022-12-29T06:57:30;8.80;;;2.57;;
14088;SDS011;7120;52.890;6.040;2022-12-29T06:59:55;15.40;;;3.03;;
14088;SDS011;7120;52.890;6.040;2022-12-29T07:02:21;7.20;;;2.40;;
14088;SDS011;7120;52.890;6.040;2022-12-29T07:04:50;8.63;;;2.70;;
14088;SDS011;7120;52.890;6.040;2022-12-29T07:07:15;10.87;;;2.30;;
14088;SDS011;7120;52.890;6.040;2022-12-29T07:09:42;8.50;;;2.50;;
14088;SDS011;7120;52.890;6.040;2022-12-29T07:12:07;8.57;;;2.40;;
14088;SDS011;7120;52.890;6.040;2022-12-29T07:14:33;9.00;;;2.60;;
14088;SDS011;7120;52.890;6.040;2022-12-29T07:16:58;13.30;;;3.00;;
14088;SDS011;7120;52.890;6.040;2022-12-29T07:19:23;11.17;;;2.97;;
14088;SDS011;7120;52.890;6.040;2022-12-29T07:21:49;14.03;;;2.83;;
14088;SDS011;7120;52.890;6.040;2022-12-29T07:24:14;8.57;;;2.50;;
14088;SDS011;7120;52.890;6.040;2022-12-29T07:26:39;7.97;;;2.07;;
14088;SDS011;7120;52.890;6.040;2022-12-29T07:29:06;9.03;;;2.57;;
14088;SDS011;7120;52.890;6.040;2022-12-29T07:31:33;9.87;;;2.60;;
14088;SDS011;7120;52.890;6.040;2022-12-29T07:33:59;11.67;;;3.07;;
14088;SDS011;7120;52.890;6.040;2022-12-29T07:36:24;8.53;;;2.80;;
14088;SDS011;7120;52.890;6.040;2022-12-29T07:38:49;8.07;;;3.20;;
14088;SDS011;7120;52.890;6.040;2022-12-29T07:41:15;10.83;;;2.90;;
14088;SDS011;7120;52.890;6.040;2022-12-29T07:43:40;9.67;;;2.33;;
14088;SDS011;7120;52.890;6.040;2022-12-29T07:46:05;10.10;;;2.50;;
14088;SDS011;7120;52.890;6.040;2022-12-29T07:48:31;14.60;;;3.30;;
14088;SDS011;7120;52.890;6.040;2022-12-29T07:50:58;8.07;;;2.60;;
14088;SDS011;7120;52.890;6.040;2022-12-29T07:53:23;10.07;;;2.60;;
14088;SDS011;7120;52.890;6.040;2022-12-29T07:55:49;11.70;;;3.20;;
14088;SDS011;7120;52.890;6.040;2022-12-29T07:58:14;12.57;;;2.53;;
14088;SDS011;7120;52.890;6.040;2022-12-29T08:00:40;12.03;;;3.00;;
14088;SDS011;7120;52.890;6.040;2022-12-29T08:03:05;9.00;;;2.33;;
14088;SDS011;7120;52.890;6.040;2022-12-29T08:05:31;12.90;;;2.90;;
14088;SDS011;7120;52.890;6.040;2022-12-29T08:07:57;15.37;;;2.90;;
14088;SDS011;7120;52.890;6.040;2022-12-29T08:10:22;10.90;;;3.10;;
14088;SDS011;7120;52.890;6.040;2022-12-29T08:12:48;15.53;;;3.27;;
14088;SDS011;7120;52.890;6.040;2022-12-29T08:15:15;12.03;;;3.73;;
14088;SDS011;7120;52.890;6.040;2022-12-29T08:17:40;12.50;;;3.00;;
14088;SDS011;7120;52.890;6.040;2022-12-29T08:20:06;18.43;;;3.60;;
14088;SDS011;7120;52.890;6.040;2022-12-29T08:22:32;14.67;;;3.97;;
14088;SDS011;7120;52.890;6.040;2022-12-29T08:24:58;14.00;;;3.30;;
14088;SDS011;7120;52.890;6.040;2022-12-29T08:27:23;15.50;;;3.40;;
14088;SDS011;7120;52.890;6.040;2022-12-29T08:29:48;16.87;;;3.30;;
14088;SDS011;7120;52.890;6.040;2022-12-29T08:32:14;15.47;;;3.60;;
14088;SDS011;7120;52.890;6.040;2022-12-29T08:34:40;13.60;;;4.07;;
14088;SDS011;7120;52.890;6.040;2022-12-29T08:37:07;17.83;;;5.27;;
14088;SDS011;7120;52.890;6.040;2022-12-29T08:39:34;29.40;;;26.33;;
14088;SDS011;7120;52.890;6.040;2022-12-29T08:42:00;15.43;;;4.30;;
14088;SDS011;7120;52.890;6.040;2022-12-29T08:44:25;17.67;;;3.87;;
14088;SDS011;7120;52.890;6.040;2022-12-29T08:46:51;15.13;;;3.67;;
14088;SDS011;7120;52.890;6.040;2022-12-29T08:49:17;15.37;;;3.90;;
14088;SDS011;7120;52.890;6.040;2022-12-29T08:51:42;12.57;;;2.93;;
14088;SDS011;7120;52.890;6.040;2022-12-29T08:54:07;15.87;;;6.63;;
14088;SDS011;7120;52.890;6.040;2022-12-29T08:56:33;19.63;;;5.60;;
14088;SDS011;7120;52.890;6.040;2022-12-29T08:58:58;14.40;;;4.23;;
14088;SDS011;7120;52.890;6.040;2022-12-29T09:01:24;13.57;;;3.47;;
14088;SDS011;7120;52.890;6.040;2022-12-29T09:03:49;11.50;;;3.20;;
14088;SDS011;7120;52.890;6.040;2022-12-29T09:06:15;11.33;;;3.00;;
14088;SDS011;7120;52.890;6.040;2022-12-29T09:08:42;8.70;;;2.60;;
14088;SDS011;7120;52.890;6.040;2022-12-29T09:11:08;10.47;;;3.10;;
14088;SDS011;7120;52.890;6.040;2022-12-29T09:13:34;10.77;;;3.07;;
14088;SDS011;7120;52.890;6.040;2022-12-29T09:16:00;17.10;;;2.83;;
14088;SDS011;7120;52.890;6.040;2022-12-29T09:18:26;13.37;;;3.30;;
14088;SDS011;7120;52.890;6.040;2022-12-29T09:20:58;11.60;;;3.10;;
14088;SDS011;7120;52.890;6.040;2022-12-29T09:23:25;10.10;;;3.20;;
14088;SDS011;7120;52.890;6.040;2022-12-29T09:25:50;13.63;;;3.30;;
14088;SDS011;7120;52.890;6.040;2022-12-29T09:28:16;10.73;;;3.53;;
14088;SDS011;7120;52.890;6.040;2022-12-29T09:30:41;10.20;;;3.20;;
14088;SDS011;7120;52.890;6.040;2022-12-29T09:33:08;15.20;;;2.90;;
14088;SDS011;7120;52.890;6.040;2022-12-29T09:35:34;10.77;;;3.20;;
14088;SDS011;7120;52.890;6.040;2022-12-29T09:37:59;14.70;;;3.60;;
14088;SDS011;7120;52.890;6.040;2022-12-29T09:40:26;14.37;;;4.77;;
14088;SDS011;7120;52.890;6.040;2022-12-29T09:45:33;12.93;;;2.90;;
14088;SDS011;7120;52.890;6.040;2022-12-29T09:48:02;13.60;;;4.50;;
14088;SDS011;7120;52.890;6.040;2022-12-29T09:50:30;12.13;;;4.77;;
14088;SDS011;7120;52.890;6.040;2022-12-29T09:53:07;11.67;;;3.77;;
14088;SDS011;7120;52.890;6.040;2022-12-29T09:55:36;10.93;;;3.00;;
14088;SDS011;7120;52.890;6.040;2022-12-29T09:58:09;20.40;;;4.23;;
14088;SDS011;7120;52.890;6.040;2022-12-29T10:00:50;12.90;;;3.57;;
14088;SDS011;7120;52.890;6.040;2022-12-29T10:03:22;12.57;;;3.13;;
14088;SDS011;7120;52.890;6.040;2022-12-29T10:08:37;12.13;;;3.20;;
14088;SDS011;7120;52.890;6.040;2022-12-29T10:22:07;15.23;;;3.73;;
14088;SDS011;7120;52.890;6.040;2022-12-29T10:24:40;21.37;;;5.37;;
14088;SDS011;7120;52.890;6.040;2022-12-29T10:27:12;18.97;;;3.27;;
14088;SDS011;7120;52.890;6.040;2022-12-29T10:29:43;12.67;;;3.10;;
14088;SDS011;7120;52.890;6.040;2022-12-29T10:34:51;15.57;;;4.27;;
14088;SDS011;7120;52.890;6.040;2022-12-29T10:37:27;17.43;;;7.80;;
14088;SDS011;7120;52.890;6.040;2022-12-29T10:39:55;14.83;;;5.37;;
14088;SDS011;7120;52.890;6.040;2022-12-29T10:44:58;14.63;;;3.90;;
14088;SDS011;7120;52.890;6.040;2022-12-29T10:47:25;16.13;;;4.03;;
14088;SDS011;7120;52.890;6.040;2022-12-29T10:49:56;14.27;;;3.90;;
14088;SDS011;7120;52.890;6.040;2022-12-29T10:52:23;20.63;;;3.97;;
14088;SDS011;7120;52.890;6.040;2022-12-29T10:54:53;14.70;;;3.50;;
14088;SDS011;7120;52.890;6.040;2022-12-29T10:57:36;18.37;;;4.23;;
14088;SDS011;7120;52.890;6.040;2022-12-29T11:07:58;20.73;;;4.17;;
14088;SDS011;7120;52.890;6.040;2022-12-29T11:10:30;16.97;;;4.93;;
14088;SDS011;7120;52.890;6.040;2022-12-29T11:13:03;24.27;;;5.13;;
14088;SDS011;7120;52.890;6.040;2022-12-29T11:15:47;20.33;;;5.23;;
14088;SDS011;7120;52.890;6.040;2022-12-29T11:20:45;18.30;;;4.87;;
14088;SDS011;7120;52.890;6.040;2022-12-29T11:26:05;20.80;;;4.43;;
14088;SDS011;7120;52.890;6.040;2022-12-29T11:34:07;20.97;;;5.17;;
14088;SDS011;7120;52.890;6.040;2022-12-29T11:36:33;20.33;;;5.63;;
14088;SDS011;7120;52.890;6.040;2022-12-29T11:39:00;20.30;;;5.70;;
14088;SDS011;7120;52.890;6.040;2022-12-29T11:41:29;20.00;;;4.77;;
14088;SDS011;7120;52.890;6.040;2022-12-29T11:43:56;14.03;;;3.63;;
14088;SDS011;7120;52.890;6.040;2022-12-29T11:46:29;18.23;;;4.83;;
14088;SDS011;7120;52.890;6.040;2022-12-29T11:49:01;18.13;;;5.77;;
14088;SDS011;7120;52.890;6.040;2022-12-29T11:51:29;18.30;;;4.07;;
14088;SDS011;7120;52.890;6.040;2022-12-29T11:54:00;37.03;;;15.47;;
14088;SDS011;7120;52.890;6.040;2022-12-29T11:56:41;50.50;;;26.37;;
14088;SDS011;7120;52.890;6.040;2022-12-29T12:04:45;21.30;;;5.37;;
14088;SDS011;7120;52.890;6.040;2022-12-29T12:07:15;22.37;;;5.03;;
14088;SDS011;7120;52.890;6.040;2022-12-29T12:09:44;16.00;;;4.53;;
14088;SDS011;7120;52.890;6.040;2022-12-29T12:12:37;16.77;;;4.53;;
14088;SDS011;7120;52.890;6.040;2022-12-29T12:15:12;18.83;;;4.97;;
14088;SDS011;7120;52.890;6.040;2022-12-29T12:20:48;15.63;;;4.83;;
14088;SDS011;7120;52.890;6.040;2022-12-29T12:23:31;18.67;;;3.97;;
14088;SDS011;7120;52.890;6.040;2022-12-29T12:26:21;12.90;;;3.30;;
14088;SDS011;7120;52.890;6.040;2022-12-29T12:29:04;17.47;;;4.20;;
14088;SDS011;7120;52.890;6.040;2022-12-29T12:31:43;14.90;;;3.53;;
14088;SDS011;7120;52.890;6.040;2022-12-29T12:34:23;11.77;;;3.57;;
14088;SDS011;7120;52.890;6.040;2022-12-29T12:50:58;14.37;;;3.57;;
14088;SDS011;7120;52.890;6.040;2022-12-29T13:20:54;7.70;;;2.50;;
14088;SDS011;7120;52.890;6.040;2022-12-29T13:23:39;11.93;;;3.10;;
14088;SDS011;7120;52.890;6.040;2022-12-29T13:29:21;11.97;;;3.60;;
14088;SDS011;7120;52.890;6.040;2022-12-29T13:37:04;11.47;;;3.50;;
14088;SDS011;7120;52.890;6.040;2022-12-29T13:39:47;14.33;;;4.43;;
14088;SDS011;7120;52.890;6.040;2022-12-29T13:42:13;17.53;;;3.00;;
14088;SDS011;7120;52.890;6.040;2022-12-29T13:44:45;18.77;;;5.47;;
14088;SDS011;7120;52.890;6.040;2022-12-29T13:50:20;11.20;;;3.37;;
14088;SDS011;7120;52.890;6.040;2022-12-29T13:55:39;14.03;;;3.10;;
14088;SDS011;7120;52.890;6.040;2022-12-29T13:58:35;13.33;;;2.73;;
14088;SDS011;7120;52.890;6.040;2022-12-29T14:01:14;10.53;;;2.93;;
14088;SDS011;7120;52.890;6.040;2022-12-29T14:08:57;14.20;;;3.40;;
14088;SDS011;7120;52.890;6.040;2022-12-29T14:11:57;15.83;;;3.60;;
14088;SDS011;7120;52.890;6.040;2022-12-29T14:14:27;10.57;;;3.00;;
14088;SDS011;7120;52.890;6.040;2022-12-29T14:16:57;12.57;;;2.97;;
14088;SDS011;7120;52.890;6.040;2022-12-29T14:19:35;8.73;;;2.87;;
14088;SDS011;7120;52.890;6.040;2022-12-29T14:22:06;13.43;;;2.87;;
14088;SDS011;7120;52.890;6.040;2022-12-29T14:26:58;16.03;;;3.40;;
14088;SDS011;7120;52.890;6.040;2022-12-29T14:31:49;10.37;;;3.00;;
14088;SDS011;7120;52.890;6.040;2022-12-29T14:39:33;13.73;;;3.13;;
14088;SDS011;7120;52.890;6.040;2022-12-29T14:44:45;14.00;;;5.23;;
14088;SDS011;7120;52.890;6.040;2022-12-29T14:47:55;9.80;;;3.77;;
14088;SDS011;7120;52.890;6.040;2022-12-29T14:50:07;11.73;;;2.47;;
14088;SDS011;7120;52.890;6.040;2022-12-29T14:52:55;11.37;;;3.17;;
14088;SDS011;7120;52.890;6.040;2022-12-29T14:58:20;9.47;;;2.60;;
14088;SDS011;7120;52.890;6.040;2022-12-29T15:00:49;7.57;;;2.37;;
14088;SDS011;7120;52.890;6.040;2022-12-29T15:05:56;12.93;;;2.90;;
14088;SDS011;7120;52.890;6.040;2022-12-29T15:08:30;7.80;;;2.63;;
14088;SDS011;7120;52.890;6.040;2022-12-29T15:11:01;11.50;;;2.43;;
14088;SDS011;7120;52.890;6.040;2022-12-29T15:13:36;8.30;;;2.33;;
14088;SDS011;7120;52.890;6.040;2022-12-29T15:16:03;10.43;;;2.60;;
14088;SDS011;7120;52.890;6.040;2022-12-29T15:18:31;9.20;;;2.13;;
14088;SDS011;7120;52.890;6.040;2022-12-29T15:21:01;10.93;;;4.57;;
14088;SDS011;7120;52.890;6.040;2022-12-29T15:23:30;8.80;;;2.30;;
14088;SDS011;7120;52.890;6.040;2022-12-29T15:26:07;9.83;;;3.27;;
14088;SDS011;7120;52.890;6.040;2022-12-29T15:28:37;11.43;;;3.13;;
14088;SDS011;7120;52.890;6.040;2022-12-29T15:31:03;13.63;;;3.70;;
14088;SDS011;7120;52.890;6.040;2022-12-29T15:33:30;11.83;;;3.80;;
14088;SDS011;7120;52.890;6.040;2022-12-29T15:35:56;13.83;;;3.63;;
14088;SDS011;7120;52.890;6.040;2022-12-29T15:38:28;13.90;;;3.03;;
14088;SDS011;7120;52.890;6.040;2022-12-29T15:40:56;10.93;;;2.70;;
14088;SDS011;7120;52.890;6.040;2022-12-29T15:46:05;8.90;;;2.60;;
14088;SDS011;7120;52.890;6.040;2022-12-29T15:48:31;12.67;;;4.20;;
14088;SDS011;7120;52.890;6.040;2022-12-29T15:50:57;13.60;;;4.50;;
14088;SDS011;7120;52.890;6.040;2022-12-29T15:53:25;12.27;;;3.90;;
14088;SDS011;7120;52.890;6.040;2022-12-29T15:55:54;12.53;;;4.20;;
14088;SDS011;7120;52.890;6.040;2022-12-29T15:58:29;11.87;;;3.40;;
14088;SDS011;7120;52.890;6.040;2022-12-29T16:00:57;15.10;;;3.10;;
14088;SDS011;7120;52.890;6.040;2022-12-29T16:03:24;19.43;;;13.40;;
14088;SDS011;7120;52.890;6.040;2022-12-29T16:05:52;11.37;;;3.27;;
14088;SDS011;7120;52.890;6.040;2022-12-29T16:08:42;14.33;;;3.27;;
14088;SDS011;7120;52.890;6.040;2022-12-29T16:11:16;12.27;;;3.60;;
14088;SDS011;7120;52.890;6.040;2022-12-29T16:13:49;8.57;;;2.87;;
14088;SDS011;7120;52.890;6.040;2022-12-29T16:16:20;13.50;;;3.53;;
14088;SDS011;7120;52.890;6.040;2022-12-29T16:18:59;13.73;;;3.67;;
14088;SDS011;7120;52.890;6.040;2022-12-29T16:21:34;7.13;;;2.30;;
14088;SDS011;7120;52.890;6.040;2022-12-29T16:24:08;5.73;;;1.80;;
14088;SDS011;7120;52.890;6.040;2022-12-29T16:26:39;5.20;;;2.90;;
14088;SDS011;7120;52.890;6.040;2022-12-29T16:29:12;14.43;;;12.93;;
14088;SDS011;7120;52.890;6.040;2022-12-29T16:31:57;6.87;;;3.00;;
14088;SDS011;7120;52.890;6.040;2022-12-29T16:34:33;6.37;;;1.50;;
14088;SDS011;7120;52.890;6.040;2022-12-29T16:39:54;4.53;;;2.00;;
14088;SDS011;7120;52.890;6.040;2022-12-29T16:45:36;5.83;;;2.93;;
14088;SDS011;7120;52.890;6.040;2022-12-29T16:50:34;12.03;;;8.17;;
14088;SDS011;7120;52.890;6.040;2022-12-29T16:53:02;7.70;;;5.30;;
14088;SDS011;7120;52.890;6.040;2022-12-29T16:55:30;7.23;;;2.30;;
14088;SDS011;7120;52.890;6.040;2022-12-29T16:57:56;10.23;;;2.80;;
14088;SDS011;7120;52.890;6.040;2022-12-29T17:00:24;9.43;;;3.60;;
14088;SDS011;7120;52.890;6.040;2022-12-29T17:02:57;11.80;;;2.93;;
14088;SDS011;7120;52.890;6.040;2022-12-29T17:05:25;11.57;;;3.63;;
14088;SDS011;7120;52.890;6.040;2022-12-29T17:07:52;14.50;;;3.53;;
14088;SDS011;7120;52.890;6.040;2022-12-29T17:10:18;14.43;;;3.73;;
14088;SDS011;7120;52.890;6.040;2022-12-29T17:12:44;11.87;;;4.03;;
14088;SDS011;7120;52.890;6.040;2022-12-29T17:15:18;13.20;;;5.97;;
14088;SDS011;7120;52.890;6.040;2022-12-29T17:17:49;21.63;;;8.93;;
14088;SDS011;7120;52.890;6.040;2022-12-29T17:22:48;15.97;;;5.73;;
14088;SDS011;7120;52.890;6.040;2022-12-29T17:25:16;17.00;;;7.10;;
14088;SDS011;7120;52.890;6.040;2022-12-29T17:27:45;16.93;;;3.87;;
14088;SDS011;7120;52.890;6.040;2022-12-29T17:30:16;9.67;;;4.93;;
14088;SDS011;7120;52.890;6.040;2022-12-29T17:32:51;10.27;;;3.83;;
14088;SDS011;7120;52.890;6.040;2022-12-29T17:35:19;11.63;;;3.30;;
14088;SDS011;7120;52.890;6.040;2022-12-29T17:37:47;14.33;;;4.50;;
14088;SDS011;7120;52.890;6.040;2022-12-29T17:40:20;14.40;;;3.63;;
14088;SDS011;7120;52.890;6.040;2022-12-29T17:42:49;16.50;;;4.40;;
14088;SDS011;7120;52.890;6.040;2022-12-29T17:45:29;19.57;;;3.87;;
14088;SDS011;7120;52.890;6.040;2022-12-29T17:47:57;16.20;;;4.30;;
14088;SDS011;7120;52.890;6.040;2022-12-29T17:50:26;14.17;;;4.50;;
14088;SDS011;7120;52.890;6.040;2022-12-29T17:52:55;16.80;;;4.30;;
14088;SDS011;7120;52.890;6.040;2022-12-29T17:55:22;19.10;;;4.13;;
14088;SDS011;7120;52.890;6.040;2022-12-29T17:57:49;13.73;;;4.30;;
14088;SDS011;7120;52.890;6.040;2022-12-29T18:00:24;17.80;;;4.47;;
14088;SDS011;7120;52.890;6.040;2022-12-29T18:02:52;17.50;;;6.63;;
14088;SDS011;7120;52.890;6.040;2022-12-29T18:05:20;17.83;;;5.83;;
14088;SDS011;7120;52.890;6.040;2022-12-29T18:07:50;22.90;;;5.90;;
14088;SDS011;7120;52.890;6.040;2022-12-29T18:10:16;19.50;;;4.70;;
14088;SDS011;7120;52.890;6.040;2022-12-29T18:12:45;16.97;;;4.23;;
14088;SDS011;7120;52.890;6.040;2022-12-29T18:15:22;19.40;;;4.80;;
14088;SDS011;7120;52.890;6.040;2022-12-29T18:17:57;20.47;;;4.53;;